createdAt,value
2018-06-22T00:02:12.496Z,19.20
2018-06-22T00:04:46.960Z,20.73
2018-06-22T00:07:20.256Z,19.43
2018-06-22T00:09:59.250Z,23.20
2018-06-22T00:12:42.561Z,20.13
2018-06-22T00:15:17.066Z,27.93
2018-06-22T00:17:49.520Z,22.70
2018-06-22T00:20:21.776Z,24.40
2018-06-22T00:22:55.033Z,26.37
2018-06-22T00:25:27.347Z,31.77
2018-06-22T00:28:04.604Z,29.10
2018-06-22T00:30:51.634Z,27.60
2018-06-22T00:33:23.672Z,30.97
2018-06-22T00:35:55.965Z,39.57
2018-06-22T00:38:33.556Z,35.67
2018-06-22T00:41:05.902Z,40.43
2018-06-22T00:43:49.768Z,39.93
2018-06-22T00:46:22.007Z,37.37
2018-06-22T00:48:54.478Z,47.80
2018-06-22T00:51:26.813Z,43.47
2018-06-22T00:54:08.416Z,45.43
2018-06-22T00:56:42.116Z,56.93
2018-06-22T00:59:15.089Z,47.20
2018-06-22T01:01:47.846Z,51.33
2018-06-22T01:04:21.845Z,49.13
2018-06-22T01:06:59.559Z,54.97
2018-06-22T01:09:31.916Z,52.30
2018-06-22T01:12:14.785Z,49.53
2018-06-22T01:14:48.417Z,52.87
2018-06-22T01:17:27.672Z,54.00
2018-06-22T01:20:07.667Z,48.03
2018-06-22T01:25:29.065Z,51.50
2018-06-22T01:28:07.870Z,47.90
2018-06-22T01:30:42.836Z,49.67
2018-06-22T01:33:20.594Z,50.00
2018-06-22T01:35:53.594Z,59.80
2018-06-22T01:38:25.782Z,48.43
2018-06-22T01:41:00.361Z,51.83
2018-06-22T01:43:32.630Z,49.43
2018-06-22T01:49:26.889Z,46.53
2018-06-22T01:52:04.240Z,47.10
2018-06-22T01:54:38.512Z,51.43
2018-06-22T01:57:13.034Z,47.20
2018-06-22T01:59:48.116Z,48.37
2018-06-22T02:02:21.931Z,51.47
2018-06-22T02:04:55.283Z,56.27
2018-06-22T02:07:30.509Z,50.50
2018-06-22T02:10:11.818Z,56.57
2018-06-22T02:12:47.039Z,53.63
2018-06-22T02:15:21.230Z,53.77
2018-06-22T02:17:54.531Z,52.77
2018-06-22T02:20:31.731Z,54.30
2018-06-22T02:23:07.875Z,46.83
2018-06-22T02:25:42.514Z,49.17
2018-06-22T02:28:19.790Z,52.20
2018-06-22T02:30:52.427Z,44.97
2018-06-22T02:33:25.742Z,51.40
2018-06-22T02:35:59.544Z,51.27
2018-06-22T02:38:33.128Z,45.70
2018-06-22T02:41:09.129Z,48.87
2018-06-22T02:43:41.650Z,50.27
2018-06-22T02:46:14.704Z,44.20
2018-06-22T02:48:47.755Z,49.00
2018-06-22T02:51:23.220Z,52.07
2018-06-22T02:53:56.167Z,49.07
2018-06-22T02:56:29.449Z,47.77
2018-06-22T02:59:01.988Z,47.50
2018-06-22T03:01:34.345Z,46.60
2018-06-22T03:04:13.317Z,46.67
2018-06-22T03:06:47.244Z,48.30
2018-06-22T03:09:21.095Z,48.57
2018-06-22T03:14:39.865Z,61.33
2018-06-22T03:17:15.206Z,54.90
2018-06-22T03:19:50.363Z,53.83
2018-06-22T03:22:27.565Z,53.97
2018-06-22T03:25:00.137Z,58.90
2018-06-22T03:27:35.364Z,52.50
2018-06-22T03:30:09.502Z,51.17
2018-06-22T03:32:46.358Z,53.70
2018-06-22T03:35:18.811Z,52.33
2018-06-22T03:37:52.464Z,51.97
2018-06-22T03:40:26.851Z,51.73
2018-06-22T03:43:00.075Z,49.63
2018-06-22T03:45:34.821Z,58.00
2018-06-22T03:48:10.115Z,51.93
2018-06-22T03:50:44.068Z,45.67
2018-06-22T03:53:25.015Z,48.00
2018-06-22T03:55:57.759Z,44.10
2018-06-22T03:58:31.161Z,56.60
2018-06-22T04:01:05.178Z,53.97
2018-06-22T04:03:39.342Z,59.57
2018-06-22T04:06:40.208Z,51.60
2018-06-22T04:09:32.227Z,53.57
2018-06-22T04:13:27.132Z,49.47
2018-06-22T04:19:44.662Z,74.57
2018-06-22T04:22:16.897Z,69.97
2018-06-22T04:24:50.409Z,72.07
2018-06-22T04:27:22.954Z,80.83
2018-06-22T04:29:56.592Z,96.67
2018-06-22T04:32:28.767Z,109.03
2018-06-22T04:35:01.122Z,107.03
2018-06-22T04:37:33.361Z,94.00
2018-06-22T04:40:13.338Z,91.10
2018-06-22T04:42:45.382Z,97.57
2018-06-22T04:45:17.400Z,110.73
2018-06-22T04:47:49.389Z,99.63
2018-06-22T04:50:22.154Z,116.10
2018-06-22T04:52:54.224Z,101.47
2018-06-22T04:55:26.357Z,101.70
2018-06-22T04:57:58.873Z,106.57
2018-06-22T05:00:33.974Z,106.83
2018-06-22T05:03:06.242Z,94.07
2018-06-22T05:05:38.472Z,44.03
2018-06-22T05:08:10.665Z,24.20
2018-06-22T05:10:43.058Z,14.73
2018-06-22T05:13:15.879Z,18.27
2018-06-22T05:15:48.151Z,16.50
2018-06-22T05:18:20.309Z,16.20
2018-06-22T05:20:52.482Z,17.07
2018-06-22T05:23:24.553Z,27.40
2018-06-22T05:25:56.691Z,15.07
2018-06-22T05:28:28.756Z,27.57
2018-06-22T05:31:00.770Z,16.83
2018-06-22T05:33:32.864Z,14.40
2018-06-22T05:36:05.188Z,14.53
2018-06-22T05:38:37.206Z,11.47
2018-06-22T05:41:09.357Z,17.20
2018-06-22T05:43:41.427Z,14.07
2018-06-22T05:46:13.513Z,9.90
2018-06-22T05:48:45.453Z,10.20
2018-06-22T05:51:17.565Z,13.30
2018-06-22T05:53:49.617Z,14.70
2018-06-22T05:56:21.754Z,12.13
2018-06-22T05:58:54.002Z,14.20
2018-06-22T06:01:27.346Z,13.17
2018-06-22T06:03:59.466Z,12.80
2018-06-22T06:06:31.596Z,14.07
2018-06-22T06:09:03.704Z,11.83
2018-06-22T06:11:35.987Z,11.43
2018-06-22T06:14:08.122Z,12.63
2018-06-22T06:16:40.169Z,8.63
2018-06-22T06:19:12.351Z,13.73
2018-06-22T06:21:44.552Z,14.80
2018-06-22T06:24:17.443Z,14.27
2018-06-22T06:26:50.475Z,18.20
2018-06-22T06:29:22.389Z,17.37
2018-06-22T06:31:54.405Z,11.63
2018-06-22T06:34:26.419Z,13.50
2018-06-22T06:36:58.650Z,13.87
2018-06-22T06:39:30.723Z,18.23
2018-06-22T06:42:05.194Z,12.00
2018-06-22T06:44:37.311Z,17.47
2018-06-22T06:47:10.466Z,15.40
2018-06-22T06:49:42.497Z,18.93
2018-06-22T06:52:14.708Z,20.60
2018-06-22T06:54:46.888Z,21.40
2018-06-22T06:57:20.008Z,17.33
2018-06-22T06:59:52.367Z,43.83
2018-06-22T07:02:24.580Z,16.80
2018-06-22T07:04:56.961Z,22.23
2018-06-22T07:07:29.143Z,38.80
2018-06-22T07:10:01.251Z,27.63
2018-06-22T07:12:33.667Z,26.13
2018-06-22T07:15:05.867Z,25.17
2018-06-22T07:17:38.072Z,30.70
2018-06-22T07:20:11.001Z,28.33
2018-06-22T07:22:43.873Z,29.17
2018-06-22T07:25:16.140Z,28.83
2018-06-22T07:27:48.340Z,33.53
2018-06-22T07:30:20.413Z,28.17
2018-06-22T07:32:52.461Z,30.63
2018-06-22T07:35:24.433Z,36.10
2018-06-22T07:37:56.473Z,32.00
2018-06-22T07:40:28.590Z,37.53
2018-06-22T07:43:01.061Z,42.13
2018-06-22T07:45:33.081Z,28.93
2018-06-22T07:48:05.339Z,30.97
2018-06-22T07:50:38.339Z,35.07
2018-06-22T07:53:10.383Z,36.23
2018-06-22T07:55:42.791Z,34.20
2018-06-22T07:58:14.945Z,31.57
2018-06-22T08:00:46.966Z,33.23
2018-06-22T08:03:20.117Z,33.83
2018-06-22T08:05:52.496Z,30.17
2018-06-22T08:08:24.522Z,30.20
2018-06-22T08:10:56.520Z,30.60
2018-06-22T08:13:28.536Z,45.53
2018-06-22T08:16:00.579Z,40.40
2018-06-22T08:18:32.690Z,38.43
2018-06-22T08:21:04.738Z,50.57
2018-06-22T08:23:37.042Z,38.67
2018-06-22T08:26:09.112Z,38.13
2018-06-22T08:28:41.313Z,33.40
2018-06-22T08:31:13.361Z,31.40
2018-06-22T08:33:45.895Z,42.17
2018-06-22T08:36:17.978Z,45.57
2018-06-22T08:38:50.101Z,39.23
2018-06-22T08:41:22.131Z,47.27
2018-06-22T08:43:56.675Z,45.50
2018-06-22T08:46:28.790Z,39.30
2018-06-22T08:49:02.163Z,44.27
2018-06-22T08:51:34.933Z,35.67
2018-06-22T08:54:07.174Z,41.27
2018-06-22T08:56:39.298Z,32.27
2018-06-22T08:59:11.450Z,28.93
2018-06-22T09:01:43.557Z,40.50
2018-06-22T09:04:16.904Z,34.23
2018-06-22T09:06:49.305Z,30.63
2018-06-22T09:09:27.076Z,39.07
2018-06-22T09:11:59.194Z,38.60
2018-06-22T09:14:31.356Z,43.27
2018-06-22T09:17:03.467Z,41.73
2018-06-22T09:19:35.475Z,36.73
2018-06-22T09:22:07.512Z,27.53
2018-06-22T09:24:39.764Z,29.97
2018-06-22T09:27:11.637Z,24.43
2018-06-22T09:29:43.681Z,16.03
2018-06-22T09:32:15.646Z,20.03
2018-06-22T09:34:47.730Z,21.43
2018-06-22T09:37:19.729Z,15.73
2018-06-22T09:39:52.050Z,17.07
2018-06-22T09:42:24.538Z,20.00
2018-06-22T09:44:56.945Z,25.70
2018-06-22T09:47:29.067Z,29.43
2018-06-22T09:50:01.619Z,31.07
2018-06-22T09:52:33.581Z,38.30
2018-06-22T09:55:05.799Z,33.10
2018-06-22T09:57:37.717Z,37.43
2018-06-22T10:00:10.036Z,30.97
2018-06-22T10:02:42.027Z,29.03
2018-06-22T10:05:21.968Z,29.57
2018-06-22T10:07:53.904Z,24.17
2018-06-22T10:10:25.862Z,17.27
2018-06-22T10:12:57.811Z,17.03
2018-06-22T10:15:29.966Z,22.47
2018-06-22T10:18:01.963Z,20.53
2018-06-22T10:20:34.288Z,19.27
2018-06-22T10:23:06.332Z,20.27
2018-06-22T10:25:38.574Z,21.50
2018-06-22T10:28:10.467Z,19.90
2018-06-22T10:30:51.615Z,23.93
2018-06-22T10:33:23.550Z,17.10
2018-06-22T10:35:55.608Z,21.23
2018-06-22T10:38:28.454Z,25.23
2018-06-22T10:41:01.968Z,18.70
2018-06-22T10:43:34.229Z,22.97
2018-06-22T10:46:39.751Z,25.60
2018-06-22T10:49:12.586Z,22.17
2018-06-22T10:51:45.024Z,20.77
2018-06-22T10:54:17.054Z,21.20
2018-06-22T10:56:49.279Z,20.90
2018-06-22T10:59:21.896Z,17.60
2018-06-22T11:01:54.084Z,20.60
2018-06-22T11:04:26.279Z,28.73
2018-06-22T11:06:58.455Z,28.37
2018-06-22T11:09:30.536Z,25.93
2018-06-22T11:12:02.585Z,24.33
2018-06-22T11:14:34.970Z,25.30
2018-06-22T11:17:07.343Z,23.40
2018-06-22T11:19:40.434Z,26.93
2018-06-22T11:22:13.157Z,28.20
2018-06-22T11:24:45.219Z,20.23
2018-06-22T11:27:17.952Z,20.93
2018-06-22T11:29:51.458Z,24.73
2018-06-22T11:32:25.182Z,28.23
2018-06-22T11:35:01.910Z,27.93
2018-06-22T11:37:34.489Z,34.43
2018-06-22T11:40:08.713Z,34.03
2018-06-22T11:42:45.998Z,25.97
2018-06-22T11:45:19.071Z,38.67
2018-06-22T11:47:54.864Z,41.03
2018-06-22T11:50:29.900Z,31.93
2018-06-22T11:53:02.401Z,35.00
2018-06-22T11:55:35.816Z,34.77
2018-06-22T11:58:13.407Z,32.07
2018-06-22T12:00:47.998Z,35.07
2018-06-22T12:03:36.190Z,28.93
2018-06-22T12:06:13.245Z,36.17
2018-06-22T12:09:00.001Z,40.07
2018-06-22T12:11:32.418Z,31.33
2018-06-22T12:14:05.148Z,30.90
2018-06-22T12:16:39.917Z,45.40
2018-06-22T12:19:12.834Z,32.70
2018-06-22T12:21:46.002Z,29.93
2018-06-22T12:24:22.995Z,37.13
2018-06-22T12:27:07.942Z,34.80
2018-06-22T12:29:41.861Z,24.13
2018-06-22T12:32:16.396Z,30.90
2018-06-22T12:34:49.635Z,27.77
2018-06-22T12:37:23.626Z,35.97
2018-06-22T12:39:56.874Z,30.40
2018-06-22T12:42:30.516Z,27.47
2018-06-22T12:45:06.648Z,24.53
2018-06-22T12:47:59.004Z,20.23
2018-06-22T12:50:39.486Z,26.00
2018-06-22T12:53:11.591Z,21.57
2018-06-22T12:55:44.221Z,17.90
2018-06-22T12:58:18.344Z,12.97
2018-06-22T13:00:58.121Z,16.87
2018-06-22T13:03:35.312Z,13.17
2018-06-22T13:06:09.548Z,17.50
2018-06-22T13:08:43.620Z,15.20
2018-06-22T13:11:26.729Z,14.83
2018-06-22T13:14:00.132Z,16.63
2018-06-22T13:16:32.508Z,12.47
2018-06-22T13:19:08.613Z,15.60
2018-06-22T13:21:56.270Z,16.83
2018-06-22T13:24:33.210Z,15.50
2018-06-22T13:27:16.311Z,25.67
2018-06-22T13:29:57.287Z,22.67
2018-06-22T13:32:41.038Z,25.30
2018-06-22T13:35:13.024Z,22.30
2018-06-22T13:37:45.108Z,17.53
2018-06-22T13:40:17.095Z,27.77
2018-06-22T13:42:49.270Z,18.13
2018-06-22T13:45:21.499Z,22.23
2018-06-22T13:47:55.128Z,12.80
2018-06-22T13:50:27.265Z,19.07
2018-06-22T13:53:02.901Z,16.63
2018-06-22T13:55:35.405Z,14.90
2018-06-22T13:58:08.215Z,13.67
2018-06-22T14:00:41.005Z,11.23
2018-06-22T14:03:13.249Z,15.03
2018-06-22T14:05:49.707Z,11.93
2018-06-22T14:08:22.714Z,15.90
2018-06-22T14:10:55.186Z,10.57
2018-06-22T14:13:28.776Z,14.60
2018-06-22T14:16:00.877Z,11.83
2018-06-22T14:18:35.697Z,12.43
2018-06-22T14:21:09.508Z,13.10
2018-06-22T14:23:41.823Z,14.17
2018-06-22T14:26:14.654Z,19.43
2018-06-22T14:28:51.486Z,18.20
2018-06-22T14:31:23.875Z,17.33
2018-06-22T14:34:00.460Z,15.73
2018-06-22T14:36:32.647Z,15.90
2018-06-22T14:39:06.639Z,16.47
2018-06-22T14:41:39.634Z,21.17
2018-06-22T14:44:11.787Z,32.63
2018-06-22T14:46:44.065Z,21.00
2018-06-22T14:49:16.789Z,39.13
2018-06-22T14:51:50.957Z,15.50
2018-06-22T14:54:31.793Z,15.40
2018-06-22T14:57:08.313Z,29.90
2018-06-22T14:59:44.805Z,12.30
2018-06-22T15:02:21.685Z,13.43
2018-06-22T15:04:59.298Z,12.60
2018-06-22T15:07:36.136Z,12.73
2018-06-22T15:10:11.848Z,11.50
2018-06-22T15:12:46.045Z,12.23
2018-06-22T15:15:20.679Z,13.73
2018-06-22T15:17:55.428Z,12.77
2018-06-22T15:20:31.742Z,7.43
2018-06-22T15:23:07.500Z,9.70
2018-06-22T15:25:40.515Z,13.40
2018-06-22T15:28:14.040Z,16.13
2018-06-22T15:30:48.676Z,13.23
2018-06-22T15:33:28.125Z,14.07
2018-06-22T15:36:14.382Z,14.67
2018-06-22T15:38:52.227Z,14.20
2018-06-22T15:41:30.205Z,15.60
2018-06-22T15:44:06.842Z,20.47
2018-06-22T15:46:44.247Z,16.40
2018-06-22T15:49:21.004Z,33.87
2018-06-22T15:51:58.527Z,38.40
2018-06-22T15:54:35.901Z,32.53
2018-06-22T15:57:11.325Z,27.50
2018-06-22T15:59:46.887Z,23.60
2018-06-22T16:02:24.513Z,15.40
2018-06-22T16:05:05.089Z,22.07
2018-06-22T16:07:42.173Z,13.20
2018-06-22T16:10:16.276Z,15.53
2018-06-22T16:13:01.460Z,9.13
2018-06-22T16:15:38.546Z,10.80
2018-06-22T16:18:25.954Z,18.40
2018-06-22T16:31:11.518Z,11.78
2018-06-22T16:37:06.832Z,12.33
2018-06-22T16:39:46.345Z,17.30
2018-06-22T16:42:26.023Z,12.03
2018-06-22T16:45:05.777Z,24.17
2018-06-22T16:51:14.257Z,16.60
2018-06-22T16:53:50.141Z,14.45
2018-06-22T16:56:29.149Z,17.23
2018-06-22T16:59:06.296Z,18.35
2018-06-22T17:01:40.379Z,16.75
2018-06-22T17:04:21.405Z,17.90
2018-06-22T17:07:05.030Z,14.33
2018-06-22T17:09:45.949Z,17.45
2018-06-22T17:12:25.154Z,11.28
2018-06-22T17:16:00.907Z,12.37
2018-06-22T17:18:38.649Z,21.07
2018-06-22T17:21:23.398Z,14.43
2018-06-22T17:24:03.526Z,13.28
2018-06-22T17:26:37.368Z,12.98
2018-06-22T17:35:01.611Z,8.05
2018-06-22T17:37:42.999Z,8.83
2018-06-22T17:41:00.596Z,7.80
2018-06-22T17:43:38.164Z,6.28
2018-06-22T17:46:18.128Z,6.33
2018-06-22T17:49:18.740Z,5.58
2018-06-22T17:52:10.654Z,6.58
2018-06-22T17:54:54.831Z,8.00
2018-06-22T17:57:29.330Z,17.87
2018-06-22T18:00:06.453Z,9.65
2018-06-22T18:06:23.303Z,11.33
2018-06-22T18:08:56.780Z,8.00
2018-06-22T18:14:23.310Z,9.93
2018-06-22T18:16:56.237Z,10.23
2018-06-22T18:20:02.440Z,8.97
2018-06-22T18:22:46.214Z,9.73
2018-06-22T18:25:20.962Z,5.47
2018-06-22T18:27:54.044Z,4.37
2018-06-22T18:30:50.239Z,4.90
2018-06-22T18:36:41.254Z,10.17
2018-06-22T18:39:19.503Z,10.30
2018-06-22T18:41:56.536Z,9.17
2018-06-22T18:44:28.893Z,9.37
2018-06-22T18:50:54.553Z,11.40
2018-06-22T18:56:42.562Z,9.10
2018-06-22T18:59:20.837Z,11.13
2018-06-22T19:01:57.535Z,27.23
2018-06-22T19:04:41.625Z,30.00
2018-06-22T19:07:13.921Z,24.53
2018-06-22T19:10:01.540Z,28.50
2018-06-22T19:13:01.749Z,21.87
2018-06-22T19:15:34.879Z,21.63
2018-06-22T19:18:07.070Z,15.17
2018-06-22T19:20:53.780Z,24.27
2018-06-22T19:23:31.441Z,22.90
2018-06-22T19:26:06.380Z,30.00
2018-06-22T19:28:38.643Z,41.83
2018-06-22T19:31:19.880Z,35.63
2018-06-22T19:33:57.346Z,29.60
2018-06-22T19:36:30.884Z,32.10
2018-06-22T19:39:06.598Z,19.87
2018-06-22T19:41:45.122Z,34.73
2018-06-22T19:44:26.896Z,32.43
2018-06-22T19:47:09.020Z,24.83
2018-06-22T19:49:49.271Z,36.73
2018-06-22T19:54:29.128Z,25.90
2018-06-22T19:57:04.246Z,27.03
2018-06-22T19:59:36.991Z,17.47
2018-06-22T20:02:10.447Z,26.57
2018-06-22T20:04:47.099Z,21.40
2018-06-22T20:07:21.612Z,19.90
2018-06-22T20:09:55.350Z,20.43
2018-06-22T20:12:27.921Z,27.57
2018-06-22T20:15:00.251Z,16.60
2018-06-22T20:17:41.267Z,19.60
2018-06-22T20:20:17.529Z,25.37
2018-06-22T20:22:50.664Z,29.00
2018-06-22T20:25:28.675Z,20.47
2018-06-22T20:28:01.153Z,19.53
2018-06-22T20:30:34.798Z,13.60
2018-06-22T20:33:08.155Z,8.20
2018-06-22T20:35:45.684Z,19.00
2018-06-22T20:41:03.608Z,11.13
2018-06-22T20:43:41.500Z,11.33
2018-06-22T20:46:15.304Z,26.90
2018-06-22T20:48:51.934Z,19.77
2018-06-22T20:51:25.878Z,17.77
2018-06-22T20:53:58.319Z,9.37
2018-06-22T20:56:59.613Z,9.67
2018-06-22T20:59:33.416Z,13.07
2018-06-22T21:02:06.200Z,12.20
2018-06-22T21:04:55.775Z,15.03
2018-06-22T21:07:31.512Z,18.10
2018-06-22T21:10:06.283Z,18.37
2018-06-22T21:12:40.847Z,17.80
2018-06-22T21:15:21.465Z,23.57
2018-06-22T21:20:44.162Z,29.20
2018-06-22T21:23:18.634Z,30.37
2018-06-22T21:25:53.375Z,26.37
2018-06-22T21:32:52.787Z,24.47
2018-06-22T21:35:48.460Z,22.60
2018-06-22T21:38:34.792Z,24.60
2018-06-22T21:41:12.613Z,25.67
2018-06-22T21:43:45.468Z,29.00
2018-06-22T21:46:18.406Z,30.17
2018-06-22T21:48:50.822Z,31.20
2018-06-22T21:51:22.993Z,27.30
2018-06-22T21:53:55.405Z,28.83
2018-06-22T21:56:27.605Z,27.00
2018-06-22T21:59:00.124Z,27.87
2018-06-22T22:01:32.830Z,32.33
2018-06-22T22:04:05.930Z,34.63
2018-06-22T22:06:39.574Z,32.23
2018-06-22T22:09:12.911Z,37.10
2018-06-22T22:11:49.350Z,30.87
2018-06-22T22:14:21.519Z,36.23
2018-06-22T22:16:53.859Z,33.87
2018-06-22T22:19:28.805Z,45.80
2018-06-22T22:22:01.317Z,71.47
2018-06-22T22:24:33.745Z,57.00
2018-06-22T22:27:07.088Z,44.20
2018-06-22T22:29:39.814Z,39.10
2018-06-22T22:32:13.143Z,32.10
2018-06-22T22:37:30.332Z,52.93
2018-06-22T22:40:10.547Z,39.13
2018-06-22T22:42:43.847Z,56.27
2018-06-22T22:45:17.045Z,50.97
2018-06-22T22:47:50.498Z,61.40
2018-06-22T22:50:23.179Z,50.73
2018-06-22T22:52:55.465Z,56.53
2018-06-22T22:55:28.044Z,48.70
2018-06-22T22:58:00.832Z,55.63
2018-06-22T23:00:33.437Z,61.13
2018-06-22T23:03:05.879Z,45.17
2018-06-22T23:05:38.426Z,47.33
2018-06-22T23:08:10.875Z,48.67
2018-06-22T23:10:59.700Z,51.87
2018-06-22T23:13:34.600Z,45.07
2018-06-22T23:16:13.545Z,49.37
2018-06-22T23:18:57.737Z,52.77
2018-06-22T23:21:33.024Z,47.20
2018-06-22T23:24:05.627Z,45.70
2018-06-22T23:26:44.458Z,49.97
2018-06-22T23:29:17.573Z,57.83
2018-06-22T23:31:49.948Z,50.30
2018-06-22T23:34:23.824Z,49.40
2018-06-22T23:36:57.093Z,56.00
2018-06-22T23:39:33.388Z,57.80
2018-06-22T23:42:14.671Z,57.33
2018-06-22T23:44:51.677Z,52.80
2018-06-22T23:47:46.792Z,57.53
